Time;durP1;ratioP1;P1;durP2;ratioP2;P2;SDS_P1;SDS_P2;PMS_P1;PMS_P2;Temp;Humidity;BMP_temperature;BMP_pressure;BME280_temperature;BME280_humidity;BME280_pressure;Samples;Min_cycle;Max_cycle;Signal;HPM_P1;HPM_P2
2023/12/31 00:00:13;;;;;;;6.57;4.35;;;;;;;;;;5030920;28;20048;-76
2023/12/31 00:02:38;;;;;;;6.18;4.30;;;;;;;;;;5030689;28;20112;-78
2023/12/31 00:05:03;;;;;;;;;;;;;;;;;;5030732;28;20037;-77
2023/12/31 00:07:29;;;;;;;6.07;4.35;;;;;;;;;;5031118;28;19916;-77
2023/12/31 00:09:54;;;;;;;;;;;;;;;;;;5030633;28;20029;-78
2023/12/31 00:12:20;;;;;;;6.28;4.60;;;;;;;;;;5029770;28;19916;-78
2023/12/31 00:14:45;;;;;;;;;;;;;;;;;;5030867;28;20041;-77
2023/12/31 00:17:11;;;;;;;7.63;4.60;;;;;;;;;;5031274;28;20272;-77
2023/12/31 00:19:36;;;;;;;;;;;;;;;;;;5014371;28;20492;-77
2023/12/31 00:22:01;;;;;;;7.90;4.95;;;;;;;;;;5030708;28;19909;-76
2023/12/31 00:24:27;;;;;;;5.68;3.95;;;;;;;;;;5030388;28;20037;-78
2023/12/31 00:26:52;;;;;;;6.60;4.30;;;;;;;;;;5030844;28;20489;-77
2023/12/31 00:29:18;;;;;;;;;;;;;;;;;;5030537;28;20037;-76
2023/12/31 00:31:43;;;;;;;6.97;4.35;;;;;;;;;;5030682;28;19909;-77
2023/12/31 00:34:10;;;;;;;;;;;;;;;;;;5030568;28;20115;-77
2023/12/31 00:36:36;;;;;;;5.30;4.10;;;;;;;;;;5029685;28;19913;-78
2023/12/31 00:39:01;;;;;;;;;;;;;;;;;;5030391;28;20048;-78
2023/12/31 00:41:27;;;;;;;6.28;4.53;;;;;;;;;;5030649;28;19947;-78
2023/12/31 00:43:52;;;;;;;7.30;4.80;;;;;;;;;;5030999;28;20065;-78
2023/12/31 00:46:18;;;;;;;6.60;4.40;;;;;;;;;;5029360;28;20119;-78
2023/12/31 00:48:43;;;;;;;6.00;4.43;;;;;;;;;;5029961;28;20047;-78
2023/12/31 00:51:09;;;;;;;6.10;4.53;;;;;;;;;;5029036;28;20026;-75
2023/12/31 00:53:35;;;;;;;6.40;4.00;;;;;;;;;;5029511;28;20083;-76
2023/12/31 00:56:01;;;;;;;;;;;;;;;;;;5013313;28;20013;-76
2023/12/31 00:58:26;;;;;;;5.10;3.78;;;;;;;;;;5031181;28;19913;-78
2023/12/31 01:00:51;;;;;;;5.55;4.03;;;;;;;;;;5029055;28;20022;-78
2023/12/31 01:03:17;;;;;;;5.65;4.25;;;;;;;;;;5013079;28;20132;-77
2023/12/31 01:05:42;;;;;;;5.60;3.92;;;;;;;;;;5029386;28;20466;-77
2023/12/31 01:08:09;;;;;;;5.82;4.03;;;;;;;;;;5029662;28;20124;-78
2023/12/31 01:10:34;;;;;;;6.03;4.25;;;;;;;;;;5012588;28;20117;-78
2023/12/31 01:13:00;;;;;;;6.28;4.50;;;;;;;;;;5029986;28;20033;-76
2023/12/31 01:15:25;;;;;;;5.18;3.75;;;;;;;;;;5025509;28;20057;-77
2023/12/31 01:17:51;;;;;;;5.78;3.70;;;;;;;;;;5004738;28;20064;-77
2023/12/31 01:20:16;;;;;;;5.55;3.42;;;;;;;;;;5014548;28;20083;-77
2023/12/31 01:22:42;;;;;;;6.25;3.47;;;;;;;;;;5030889;28;20141;-77
2023/12/31 01:25:07;;;;;;;;;;;;;;;;;;5013474;28;20030;-78
2023/12/31 01:27:33;;;;;;;5.55;3.25;;;;;;;;;;5029225;28;20039;-78
2023/12/31 01:29:58;;;;;;;;;;;;;;;;;;5031647;28;20507;-77
2023/12/31 01:32:23;;;;;;;6.60;3.75;;;;;;;;;;5028867;28;20257;-78
2023/12/31 01:34:49;;;;;;;7.18;4.50;;;;;;;;;;5028889;28;20021;-78
2023/12/31 01:37:15;;;;;;;6.53;3.63;;;;;;;;;;5032783;28;20033;-77
2023/12/31 01:39:41;;;;;;;8.02;4.93;;;;;;;;;;5028760;28;20116;-76
2023/12/31 01:42:07;;;;;;;;;;;;;;;;;;5033773;28;20456;-78
2023/12/31 01:44:32;;;;;;;6.95;3.72;;;;;;;;;;5015994;28;20410;-77
2023/12/31 01:46:58;;;;;;;8.32;5.53;;;;;;;;;;5033018;28;20030;-77
2023/12/31 01:49:23;;;;;;;;;;;;;;;;;;5033033;28;20124;-79
2023/12/31 01:51:49;;;;;;;8.65;5.75;;;;;;;;;;5034292;28;19921;-78
2023/12/31 01:54:14;;;;;;;8.82;4.75;;;;;;;;;;5034024;28;20075;-78
2023/12/31 01:56:40;;;;;;;9.13;5.80;;;;;;;;;;5033894;28;20056;-78
2023/12/31 01:59:06;;;;;;;;;;;;;;;;;;5008225;28;20079;-77
2023/12/31 02:01:32;;;;;;;7.55;5.30;;;;;;;;;;5036131;28;19913;-77
2023/12/31 02:03:58;;;;;;;8.38;5.15;;;;;;;;;;5018036;28;20440;-77
2023/12/31 02:06:23;;;;;;;;;;;;;;;;;;5037358;28;20029;-78
2023/12/31 02:08:48;;;;;;;9.90;5.72;;;;;;;;;;5035057;28;20031;-77
2023/12/31 02:11:15;;;;;;;8.63;6.10;;;;;;;;;;5032092;28;20548;-78
2023/12/31 02:13:43;;;;;;;10.45;6.70;;;;;;;;;;5034088;28;20463;-78
2023/12/31 02:16:12;;;;;;;8.02;5.20;;;;;;;;;;5049627;28;20133;-75
2023/12/31 02:18:37;;;;;;;9.60;5.38;;;;;;;;;;5015891;28;20022;-76
2023/12/31 02:21:03;;;;;;;9.23;5.38;;;;;;;;;;5012781;28;20390;-77
2023/12/31 02:23:28;;;;;;;7.78;5.03;;;;;;;;;;5013700;28;20399;-77
2023/12/31 02:26:01;;;;;;;8.95;5.38;;;;;;;;;;5033507;28;20060;-76
2023/12/31 02:28:26;;;;;;;8.82;5.47;;;;;;;;;;5014783;28;20029;-76
2023/12/31 02:30:52;;;;;;;10.07;6.07;;;;;;;;;;5032386;28;20056;-76
2023/12/31 02:33:17;;;;;;;9.48;5.45;;;;;;;;;;5032183;28;20037;-76
2023/12/31 02:35:43;;;;;;;7.88;5.13;;;;;;;;;;5035465;28;20120;-76
2023/12/31 02:38:08;;;;;;;;;;;;;;;;;;5034031;28;20045;-76
2023/12/31 02:40:34;;;;;;;9.13;5.22;;;;;;;;;;5024784;28;19910;-77
2023/12/31 02:42:59;;;;;;;;;;;;;;;;;;5015514;28;20037;-75
2023/12/31 02:45:25;;;;;;;8.07;5.22;;;;;;;;;;5033411;28;19967;-77
2023/12/31 02:47:51;;;;;;;9.93;5.45;;;;;;;;;;5031757;28;20042;-76
2023/12/31 02:50:17;;;;;;;8.65;5.40;;;;;;;;;;5015628;28;20025;-77
2023/12/31 02:52:42;;;;;;;11.98;6.47;;;;;;;;;;5016469;28;20034;-76
2023/12/31 02:55:08;;;;;;;10.10;5.97;;;;;;;;;;5001075;28;20099;-77
2023/12/31 02:57:34;;;;;;;;;;;;;;;;;;5019527;28;20511;-77
2023/12/31 02:59:59;;;;;;;8.73;5.57;;;;;;;;;;5035996;28;19913;-77
2023/12/31 03:02:25;;;;;;;7.85;5.55;;;;;;;;;;5034530;28;20060;-77
2023/12/31 03:04:50;;;;;;;;;;;;;;;;;;5035176;28;20083;-77
2023/12/31 03:07:16;;;;;;;9.63;5.88;;;;;;;;;;5033837;28;19912;-78
2023/12/31 03:09:41;;;;;;;8.23;5.65;;;;;;;;;;5034332;28;20048;-77
2023/12/31 03:12:07;;;;;;;8.57;5.78;;;;;;;;;;5036195;28;20112;-77
2023/12/31 03:14:32;;;;;;;9.52;5.28;;;;;;;;;;5031684;28;20116;-77
2023/12/31 03:16:58;;;;;;;8.00;5.63;;;;;;;;;;5032654;28;20389;-77
2023/12/31 03:19:23;;;;;;;9.68;4.72;;;;;;;;;;5014699;28;20033;-77
2023/12/31 03:21:50;;;;;;;7.38;5.05;;;;;;;;;;5017562;28;20040;-77
2023/12/31 03:24:20;;;;;;;7.63;4.35;;;;;;;;;;5032859;28;20492;-77
2023/12/31 03:26:45;;;;;;;10.02;5.57;;;;;;;;;;5033640;28;20135;-77
2023/12/31 03:29:12;;;;;;;7.47;4.85;;;;;;;;;;5028096;28;20522;-77
2023/12/31 03:31:37;;;;;;;6.78;4.55;;;;;;;;;;5030647;28;20083;-77
2023/12/31 03:34:06;;;;;;;6.05;4.20;;;;;;;;;;5015362;28;20028;-77
2023/12/31 03:36:33;;;;;;;4.97;3.47;;;;;;;;;;5014800;28;20036;-77
2023/12/31 03:38:59;;;;;;;5.65;3.85;;;;;;;;;;5014894;28;20424;-77
2023/12/31 03:41:24;;;;;;;;;;;;;;;;;;5032546;28;20167;-77
2023/12/31 03:43:49;;;;;;;5.25;3.63;;;;;;;;;;5030838;28;19955;-77
2023/12/31 03:46:15;;;;;;;6.88;3.75;;;;;;;;;;5032315;28;20057;-77
2023/12/31 03:48:40;;;;;;;;;;;;;;;;;;5015071;28;20048;-77
2023/12/31 03:51:06;;;;;;;4.60;3.35;;;;;;;;;;5030844;28;20007;-76
2023/12/31 03:53:32;;;;;;;5.88;3.72;;;;;;;;;;5034431;28;20025;-77
2023/12/31 03:55:57;;;;;;;5.53;3.22;;;;;;;;;;5014172;28;20048;-77
2023/12/31 03:58:23;;;;;;;5.88;3.08;;;;;;;;;;5030959;28;20396;-77
2023/12/31 04:00:48;;;;;;;;;;;;;;;;;;5013285;28;20041;-77
2023/12/31 04:03:14;;;;;;;5.45;2.90;;;;;;;;;;5030038;28;19916;-77
2023/12/31 04:05:39;;;;;;;4.15;2.88;;;;;;;;;;5030343;28;20029;-77
2023/12/31 04:08:05;;;;;;;;;;;;;;;;;;5032199;28;20030;-77
2023/12/31 04:10:32;;;;;;;5.93;2.60;;;;;;;;;;5031356;28;19928;-77
2023/12/31 04:12:57;;;;;;;4.03;2.60;;;;;;;;;;5030457;28;20350;-78
2023/12/31 04:15:23;;;;;;;;;;;;;;;;;;5030593;28;20028;-77
2023/12/31 04:17:48;;;;;;;3.35;2.13;;;;;;;;;;5030962;28;19929;-77
2023/12/31 04:20:14;;;;;;;5.22;2.67;;;;;;;;;;5014150;28;20448;-78
2023/12/31 04:22:40;;;;;;;3.50;2.30;;;;;;;;;;5030855;28;20053;-77
2023/12/31 04:25:06;;;;;;;3.53;2.08;;;;;;;;;;5001217;28;20060;-75
2023/12/31 04:27:31;;;;;;;2.70;1.95;;;;;;;;;;5016509;28;20025;-76
2023/12/31 04:29:57;;;;;;;5.72;2.08;;;;;;;;;;5038166;28;20452;-76
2023/12/31 04:32:25;;;;;;;;;;;;;;;;;;5035383;28;20083;-77
2023/12/31 04:34:50;;;;;;;;;;;;;;;;;;5035440;28;20393;-78
2023/12/31 04:37:15;;;;;;;3.78;2.03;;;;;;;;;;5035822;28;19909;-76
2023/12/31 04:39:41;;;;;;;2.88;1.40;;;;;;;;;;5039015;28;20039;-76
2023/12/31 04:42:06;;;;;;;2.25;1.55;;;;;;;;;;5034505;28;20033;-77
2023/12/31 04:44:32;;;;;;;;;;;;;;;;;;5032756;28;20045;-77
2023/12/31 04:46:58;;;;;;;3.92;1.80;;;;;;;;;;5030606;28;20016;-76
2023/12/31 04:49:23;;;;;;;3.05;1.50;;;;;;;;;;5033702;28;20029;-76
2023/12/31 04:51:49;;;;;;;1.95;1.40;;;;;;;;;;5031168;28;20029;-76
2023/12/31 04:54:16;;;;;;;1.90;1.27;;;;;;;;;;5038635;28;20438;-76
2023/12/31 04:56:42;;;;;;;2.00;1.40;;;;;;;;;;5030099;28;20030;-76
2023/12/31 04:59:08;;;;;;;3.00;1.30;;;;;;;;;;5018253;28;20029;-76
2023/12/31 05:01:33;;;;;;;;;;;;;;;;;;5018637;28;20047;-76
2023/12/31 05:03:59;;;;;;;2.85;1.40;;;;;;;;;;5037660;28;19924;-76
2023/12/31 05:06:25;;;;;;;;;;;;;;;;;;5031101;28;20021;-76
2023/12/31 05:08:50;;;;;;;3.22;1.33;;;;;;;;;;5037949;28;19912;-76
2023/12/31 05:11:15;;;;;;;;;;;;;;;;;;5021152;28;20064;-76
2023/12/31 05:13:41;;;;;;;2.20;1.13;;;;;;;;;;5034917;28;20043;-77
2023/12/31 05:16:07;;;;;;;2.58;1.33;;;;;;;;;;5011836;28;20457;-77
2023/12/31 05:18:33;;;;;;;2.63;1.27;;;;;;;;;;5026242;28;20038;-78
2023/12/31 05:20:58;;;;;;;;;;;;;;;;;;5030901;28;20065;-76
2023/12/31 05:23:24;;;;;;;2.05;1.33;;;;;;;;;;5030049;28;20272;-76
2023/12/31 05:25:49;;;;;;;3.47;1.48;;;;;;;;;;5012790;28;20025;-77
2023/12/31 05:28:15;;;;;;;2.10;1.40;;;;;;;;;;4994980;28;20485;-77
2023/12/31 05:30:42;;;;;;;2.10;1.30;;;;;;;;;;5013133;28;20029;-78
2023/12/31 05:33:10;;;;;;;3.13;1.20;;;;;;;;;;5033322;28;20106;-77
2023/12/31 05:35:35;;;;;;;2.92;1.20;;;;;;;;;;5029396;28;20500;-78
2023/12/31 05:38:01;;;;;;;1.92;1.30;;;;;;;;;;5031175;28;20148;-77
2023/12/31 05:40:26;;;;;;;1.33;0.98;;;;;;;;;;5030702;28;20037;-76
2023/12/31 05:42:52;;;;;;;2.38;1.23;;;;;;;;;;5012410;28;20480;-75
2023/12/31 05:45:18;;;;;;;1.75;1.10;;;;;;;;;;5030192;28;20115;-76
2023/12/31 05:47:44;;;;;;;1.15;0.90;;;;;;;;;;5030732;28;20037;-76
2023/12/31 05:50:09;;;;;;;1.80;1.27;;;;;;;;;;5012428;28;20480;-76
2023/12/31 05:52:35;;;;;;;1.75;1.20;;;;;;;;;;5028739;28;20099;-76
2023/12/31 05:55:00;;;;;;;3.70;1.02;;;;;;;;;;5012826;28;20029;-76
2023/12/31 05:57:26;;;;;;;;;;;;;;;;;;5029145;28;20397;-76
2023/12/31 05:59:51;;;;;;;2.28;1.30;;;;;;;;;;5030077;28;19909;-76
2023/12/31 06:02:17;;;;;;;;;;;;;;;;;;5030345;28;20045;-76
2023/12/31 06:04:42;;;;;;;2.33;1.38;;;;;;;;;;5028365;28;19912;-76
2023/12/31 06:07:07;;;;;;;1.40;1.13;;;;;;;;;;5012956;28;20036;-77
2023/12/31 06:09:33;;;;;;;2.28;1.25;;;;;;;;;;5029730;28;20064;-77
2023/12/31 06:11:58;;;;;;;2.05;1.35;;;;;;;;;;5029682;28;20033;-77
2023/12/31 06:14:24;;;;;;;1.70;1.10;;;;;;;;;;5029295;28;20029;-77
2023/12/31 06:16:50;;;;;;;2.55;1.27;;;;;;;;;;5028264;28;20456;-77
2023/12/31 06:19:15;;;;;;;;;;;;;;;;;;5029790;28;20037;-77
2023/12/31 06:21:41;;;;;;;1.65;1.10;;;;;;;;;;5028228;28;19913;-78
2023/12/31 06:24:06;;;;;;;1.75;1.20;;;;;;;;;;5030163;28;20504;-78
2023/12/31 06:26:31;;;;;;;1.75;1.20;;;;;;;;;;5028988;28;20041;-78
2023/12/31 06:28:57;;;;;;;1.40;1.10;;;;;;;;;;5033689;28;20542;-77
2023/12/31 06:31:22;;;;;;;1.83;1.10;;;;;;;;;;5019311;28;20040;-77
2023/12/31 06:33:48;;;;;;;;;;;;;;;;;;5036099;28;20029;-78
2023/12/31 06:36:13;;;;;;;1.83;1.30;;;;;;;;;;5026954;28;19913;-78
2023/12/31 06:38:40;;;;;;;;;;;;;;;;;;5036292;28;20164;-77
2023/12/31 06:41:09;;;;;;;1.38;0.90;;;;;;;;;;5034220;28;19917;-77
2023/12/31 06:43:35;;;;;;;2.00;1.20;;;;;;;;;;5033257;28;20234;-77
2023/12/31 06:46:00;;;;;;;;;;;;;;;;;;5036388;28;20148;-76
2023/12/31 06:48:26;;;;;;;1.70;1.10;;;;;;;;;;5037385;28;20022;-78
2023/12/31 06:50:51;;;;;;;2.35;1.40;;;;;;;;;;5039286;28;20042;-77
2023/12/31 06:53:16;;;;;;;;;;;;;;;;;;5033341;28;20029;-76
2023/12/31 06:55:42;;;;;;;1.80;1.10;;;;;;;;;;5037384;28;19917;-77
2023/12/31 06:58:07;;;;;;;;;;;;;;;;;;5040385;28;20071;-77
2023/12/31 07:00:33;;;;;;;1.63;0.80;;;;;;;;;;5032896;28;20395;-78
2023/12/31 07:02:59;;;;;;;;;;;;;;;;;;5031931;28;20037;-76
2023/12/31 07:05:24;;;;;;;1.83;1.05;;;;;;;;;;5031764;28;19974;-76
2023/12/31 07:07:50;;;;;;;2.38;1.40;;;;;;;;;;5036922;28;20112;-76
2023/12/31 07:10:15;;;;;;;;;;;;;;;;;;5032908;28;20037;-76
2023/12/31 07:12:41;;;;;;;2.15;1.23;;;;;;;;;;5031463;28;20332;-77
2023/12/31 07:15:06;;;;;;;2.35;1.25;;;;;;;;;;5031063;28;20033;-77
2023/12/31 07:17:32;;;;;;;3.28;1.40;;;;;;;;;;5031305;28;20026;-77
2023/12/31 07:19:57;;;;;;;;;;;;;;;;;;5015008;28;20063;-77
2023/12/31 07:22:23;;;;;;;1.95;1.20;;;;;;;;;;5032326;28;19916;-77
2023/12/31 07:24:48;;;;;;;2.58;1.38;;;;;;;;;;5015921;28;20416;-77
2023/12/31 07:27:13;;;;;;;2.30;1.20;;;;;;;;;;5034156;28;20091;-77
2023/12/31 07:29:39;;;;;;;2.03;1.20;;;;;;;;;;5031276;28;20041;-77
2023/12/31 07:32:05;;;;;;;2.30;1.33;;;;;;;;;;5021071;28;20044;-77
2023/12/31 07:34:30;;;;;;;1.48;1.02;;;;;;;;;;5031043;28;20040;-77
2023/12/31 07:36:56;;;;;;;;;;;;;;;;;;5032053;28;20029;-77
2023/12/31 07:39:21;;;;;;;1.60;1.17;;;;;;;;;;5031159;28;20299;-77
2023/12/31 07:41:47;;;;;;;;;;;;;;;;;;5032415;28;20032;-77
2023/12/31 07:44:19;;;;;;;2.05;1.30;;;;;;;;;;5030524;28;20300;-77
2023/12/31 07:46:45;;;;;;;2.10;1.20;;;;;;;;;;5032001;28;20045;-78
2023/12/31 07:49:10;;;;;;;;;;;;;;;;;;5031455;28;21412;-77
2023/12/31 07:51:35;;;;;;;1.25;1.00;;;;;;;;;;5031696;28;20007;-78
2023/12/31 07:54:01;;;;;;;;;;;;;;;;;;5032355;28;20064;-76
2023/12/31 07:56:26;;;;;;;1.95;1.17;;;;;;;;;;5030566;28;20365;-76
2023/12/31 07:58:51;;;;;;;;;;;;;;;;;;5032532;28;20025;-78
2023/12/31 08:01:17;;;;;;;1.45;1.00;;;;;;;;;;5045640;28;19956;-78
2023/12/31 08:03:42;;;;;;;1.40;1.00;;;;;;;;;;5021826;28;20056;-77
2023/12/31 08:06:09;;;;;;;1.73;1.10;;;;;;;;;;5025790;28;20079;-78
2023/12/31 08:08:35;;;;;;;1.35;1.00;;;;;;;;;;5033168;28;20033;-76
2023/12/31 08:11:00;;;;;;;;;;;;;;;;;;5036857;28;20034;-77
2023/12/31 08:13:26;;;;;;;1.45;1.00;;;;;;;;;;5030502;28;19909;-78
2023/12/31 08:15:51;;;;;;;;;;;;;;;;;;5030346;28;20087;-78
2023/12/31 08:18:17;;;;;;;3.72;1.20;;;;;;;;;;5031266;28;19955;-77
2023/12/31 08:20:42;;;;;;;1.70;0.95;;;;;;;;;;5013798;28;20492;-77
2023/12/31 08:23:08;;;;;;;3.17;1.30;;;;;;;;;;5031066;28;20071;-78
2023/12/31 08:25:33;;;;;;;;;;;;;;;;;;5030751;28;20041;-77
2023/12/31 08:27:59;;;;;;;3.08;1.30;;;;;;;;;;5030398;28;19967;-78
2023/12/31 08:30:25;;;;;;;1.60;1.00;;;;;;;;;;5032641;28;20381;-77
2023/12/31 08:32:50;;;;;;;;;;;;;;;;;;5031556;28;20028;-77
2023/12/31 08:35:16;;;;;;;1.40;0.90;;;;;;;;;;5029895;28;19912;-77
2023/12/31 08:37:41;;;;;;;1.92;1.13;;;;;;;;;;5031083;28;20025;-78
2023/12/31 08:40:06;;;;;;;;;;;;;;;;;;5015931;28;20084;-78
2023/12/31 08:42:32;;;;;;;1.25;0.93;;;;;;;;;;5031268;28;19916;-78
2023/12/31 08:44:57;;;;;;;2.10;0.93;;;;;;;;;;5016703;28;20053;-78
2023/12/31 08:47:23;;;;;;;2.30;1.10;;;;;;;;;;5031619;28;20088;-78
2023/12/31 08:49:48;;;;;;;;;;;;;;;;;;5033870;28;20041;-78
2023/12/31 08:52:14;;;;;;;2.25;1.52;;;;;;;;;;5031760;28;20378;-77
2023/12/31 08:54:39;;;;;;;2.53;0.90;;;;;;;;;;5029532;28;20040;-78
2023/12/31 08:57:05;;;;;;;2.05;1.20;;;;;;;;;;5032006;28;20029;-78
2023/12/31 08:59:30;;;;;;;1.40;0.82;;;;;;;;;;5035522;28;20510;-78
2023/12/31 09:01:56;;;;;;;1.58;0.93;;;;;;;;;;5013319;28;20377;-78
2023/12/31 09:04:22;;;;;;;1.35;0.90;;;;;;;;;;5030689;28;20519;-78
2023/12/31 09:06:48;;;;;;;1.83;0.88;;;;;;;;;;5026012;28;20036;-76
2023/12/31 09:09:14;;;;;;;;;;;;;;;;;;5035299;28;20041;-76
2023/12/31 09:11:39;;;;;;;1.92;1.10;;;;;;;;;;5032547;28;19913;-77
2023/12/31 09:14:05;;;;;;;;;;;;;;;;;;5034000;28;20033;-77
2023/12/31 09:16:30;;;;;;;1.63;1.10;;;;;;;;;;5026088;28;19915;-76
2023/12/31 09:18:55;;;;;;;1.95;1.08;;;;;;;;;;5029338;28;20079;-79
2023/12/31 09:21:21;;;;;;;1.98;1.30;;;;;;;;;;5029517;28;20400;-77
2023/12/31 09:23:46;;;;;;;2.03;1.33;;;;;;;;;;5031382;28;20064;-77
2023/12/31 09:26:12;;;;;;;1.50;0.90;;;;;;;;;;5030726;28;20041;-76
2023/12/31 09:28:39;;;;;;;;;;;;;;;;;;5029558;28;20055;-76
2023/12/31 09:31:05;;;;;;;2.08;1.10;;;;;;;;;;5029832;28;20348;-78
2023/12/31 09:33:30;;;;;;;2.55;1.08;;;;;;;;;;5031732;28;20064;-77
2023/12/31 09:35:56;;;;;;;1.77;1.00;;;;;;;;;;5030228;28;20030;-78
2023/12/31 09:38:21;;;;;;;1.35;0.85;;;;;;;;;;5031527;28;20044;-78
2023/12/31 09:40:47;;;;;;;;;;;;;;;;;;5032397;28;20034;-78
2023/12/31 09:43:12;;;;;;;1.52;0.90;;;;;;;;;;5030386;28;19913;-78
2023/12/31 09:45:38;;;;;;;0.95;0.75;;;;;;;;;;5030234;28;20053;-78
2023/12/31 09:48:04;;;;;;;1.92;0.93;;;;;;;;;;5030115;28;20053;-78
2023/12/31 09:50:30;;;;;;;;;;;;;;;;;;5030464;28;20071;-78
2023/12/31 09:52:57;;;;;;;2.17;1.13;;;;;;;;;;5028516;28;19920;-76
2023/12/31 09:55:22;;;;;;;3.08;1.20;;;;;;;;;;5028911;28;20536;-77
2023/12/31 09:57:48;;;;;;;;;;;;;;;;;;5029341;28;20325;-77
2023/12/31 10:00:13;;;;;;;1.40;1.00;;;;;;;;;;5030148;28;19924;-76
2023/12/31 10:02:39;;;;;;;2.40;1.20;;;;;;;;;;5035399;28;20041;-78
2023/12/31 10:05:04;;;;;;;;;;;;;;;;;;5038450;28;20088;-77
2023/12/31 10:07:29;;;;;;;2.15;1.10;;;;;;;;;;5039295;28;19925;-77
2023/12/31 10:09:55;;;;;;;3.67;1.08;;;;;;;;;;5034089;28;20037;-77
2023/12/31 10:12:20;;;;;;;2.30;0.90;;;;;;;;;;5018741;28;20052;-77
2023/12/31 10:14:46;;;;;;;1.88;1.00;;;;;;;;;;5032474;28;20104;-77
2023/12/31 10:17:11;;;;;;;;;;;;;;;;;;5032600;28;20041;-76
2023/12/31 10:19:38;;;;;;;1.35;0.85;;;;;;;;;;5033554;28;19913;-76
2023/12/31 10:22:10;;;;;;;1.85;1.02;;;;;;;;;;5032374;28;20041;-76
2023/12/31 10:24:36;;;;;;;1.63;0.90;;;;;;;;;;5016798;28;20128;-77
2023/12/31 10:27:03;;;;;;;1.33;0.90;;;;;;;;;;5033465;28;20116;-78
2023/12/31 10:29:28;;;;;;;4.68;1.38;;;;;;;;;;5016788;28;20048;-75
2023/12/31 10:31:54;;;;;;;;;;;;;;;;;;5034276;28;20415;-76
2023/12/31 10:34:19;;;;;;;1.17;0.70;;;;;;;;;;5032001;28;20375;-76
2023/12/31 10:36:45;;;;;;;;;;;;;;;;;;5038488;28;20388;-77
2023/12/31 10:39:13;;;;;;;1.40;0.88;;;;;;;;;;5036274;28;19913;-76
2023/12/31 10:41:47;;;;;;;1.42;0.82;;;;;;;;;;5025880;28;20714;-77
2023/12/31 10:44:13;;;;;;;2.60;1.20;;;;;;;;;;5028917;28;20048;-77
2023/12/31 10:46:39;;;;;;;;;;;;;;;;;;5002574;28;20396;-77
2023/12/31 10:49:05;;;;;;;1.45;0.80;;;;;;;;;;5034965;28;19917;-77
2023/12/31 10:51:31;;;;;;;;;;;;;;;;;;5007734;28;20025;-75
2023/12/31 10:54:02;;;;;;;1.70;1.00;;;;;;;;;;5029238;28;20372;-78
2023/12/31 10:56:28;;;;;;;1.45;0.80;;;;;;;;;;5033621;28;20399;-78
2023/12/31 10:58:53;;;;;;;;;;;;;;;;;;5033539;28;20030;-77
2023/12/31 11:01:19;;;;;;;1.58;0.80;;;;;;;;;;5022621;28;19956;-78
2023/12/31 11:03:44;;;;;;;1.02;0.77;;;;;;;;;;5017336;28;20033;-78
2023/12/31 11:06:10;;;;;;;2.22;1.00;;;;;;;;;;5020909;28;20467;-78
2023/12/31 11:08:35;;;;;;;;;;;;;;;;;;5018253;28;20018;-77
2023/12/31 11:11:04;;;;;;;2.22;0.90;;;;;;;;;;5036168;28;20400;-76
2023/12/31 11:13:29;;;;;;;1.27;0.80;;;;;;;;;;5030048;28;20509;-77
2023/12/31 11:15:55;;;;;;;1.13;0.80;;;;;;;;;;5011752;28;20065;-77
2023/12/31 11:18:20;;;;;;;;;;;;;;;;;;5030457;28;20037;-77
2023/12/31 11:20:51;;;;;;;1.42;1.00;;;;;;;;;;5032597;28;19913;-77
2023/12/31 11:23:25;;;;;;;2.05;0.90;;;;;;;;;;5019702;28;20043;-77
2023/12/31 11:25:51;;;;;;;1.40;0.77;;;;;;;;;;5018187;28;20033;-77
2023/12/31 11:28:19;;;;;;;1.98;0.90;;;;;;;;;;5031589;28;20032;-76
2023/12/31 11:30:58;;;;;;;1.40;0.80;;;;;;;;;;5029242;28;20049;-77
2023/12/31 11:33:33;;;;;;;1.17;0.85;;;;;;;;;;5047579;28;20038;-77
2023/12/31 11:36:03;;;;;;;1.17;0.80;;;;;;;;;;5026768;28;20060;-77
2023/12/31 11:38:48;;;;;;;1.90;0.98;;;;;;;;;;5031775;28;20041;-77
2023/12/31 11:41:13;;;;;;;1.80;0.90;;;;;;;;;;5015327;28;20034;-78
2023/12/31 11:43:39;;;;;;;2.03;0.90;;;;;;;;;;5032155;28;20394;-76
2023/12/31 11:46:04;;;;;;;1.02;0.73;;;;;;;;;;5030361;28;20531;-76
2023/12/31 11:48:30;;;;;;;;;;;;;;;;;;5032622;28;20041;-76
2023/12/31 11:51:01;;;;;;;1.75;0.90;;;;;;;;;;5031740;28;19917;-78
2023/12/31 11:53:47;;;;;;;1.13;0.80;;;;;;;;;;5030873;28;20037;-77
2023/12/31 11:56:12;;;;;;;1.05;0.70;;;;;;;;;;5026041;28;20492;-77
2023/12/31 11:58:37;;;;;;;;;;;;;;;;;;5032050;28;20109;-77
2023/12/31 12:01:03;;;;;;;1.30;0.68;;;;;;;;;;5032049;28;19920;-77
2023/12/31 12:03:28;;;;;;;1.25;0.70;;;;;;;;;;5012295;28;20041;-78
2023/12/31 12:05:54;;;;;;;0.80;0.70;;;;;;;;;;5024069;28;20034;-77
2023/12/31 12:08:19;;;;;;;3.53;1.00;;;;;;;;;;5034678;28;20051;-78
2023/12/31 12:10:45;;;;;;;1.50;0.88;;;;;;;;;;5031997;28;20182;-77
2023/12/31 12:13:13;;;;;;;2.95;0.90;;;;;;;;;;5030037;28;20030;-78
2023/12/31 12:15:38;;;;;;;0.77;0.75;;;;;;;;;;5030586;28;20022;-78
2023/12/31 12:18:17;;;;;;;0.70;0.60;;;;;;;;;;5014315;28;20031;-78
2023/12/31 12:20:43;;;;;;;1.05;0.82;;;;;;;;;;5013790;28;20111;-79
2023/12/31 12:23:08;;;;;;;;;;;;;;;;;;5030290;28;20064;-79
2023/12/31 12:25:34;;;;;;;2.40;1.10;;;;;;;;;;5032222;28;19913;-79
2023/12/31 12:28:00;;;;;;;2.55;1.10;;;;;;;;;;5032296;28;20033;-79
2023/12/31 12:30:27;;;;;;;1.85;1.13;;;;;;;;;;5032218;28;20045;-78
2023/12/31 12:32:54;;;;;;;3.55;1.00;;;;;;;;;;5030991;28;20075;-78
2023/12/31 12:35:21;;;;;;;1.90;1.10;;;;;;;;;;5033268;28;20036;-78
2023/12/31 12:37:46;;;;;;;1.20;0.90;;;;;;;;;;5033271;28;20590;-78
2023/12/31 12:40:17;;;;;;;1.08;0.80;;;;;;;;;;5033197;28;20057;-77
2023/12/31 12:42:44;;;;;;;1.30;0.82;;;;;;;;;;5013615;28;20037;-78
2023/12/31 12:45:10;;;;;;;2.35;1.10;;;;;;;;;;5030237;28;20061;-77
2023/12/31 12:47:35;;;;;;;;;;;;;;;;;;5033242;28;20492;-77
2023/12/31 12:50:01;;;;;;;2.03;1.20;;;;;;;;;;5035976;28;19917;-78
2023/12/31 12:52:28;;;;;;;2.88;1.83;;;;;;;;;;5029698;28;20456;-77
2023/12/31 12:54:53;;;;;;;2.78;1.35;;;;;;;;;;5030684;28;20447;-77
2023/12/31 12:57:19;;;;;;;1.58;1.00;;;;;;;;;;5032262;28;20021;-77
2023/12/31 12:59:44;;;;;;;1.85;0.80;;;;;;;;;;5030699;28;20088;-78
2023/12/31 13:02:09;;;;;;;1.98;1.20;;;;;;;;;;5032222;28;20029;-77
2023/12/31 13:04:35;;;;;;;2.25;1.00;;;;;;;;;;5017557;28;20128;-77
2023/12/31 13:07:00;;;;;;;1.63;0.95;;;;;;;;;;5033955;28;20059;-78
2023/12/31 13:09:26;;;;;;;1.27;0.90;;;;;;;;;;5033752;28;20029;-77
2023/12/31 13:11:51;;;;;;;1.48;1.00;;;;;;;;;;5017876;28;20026;-77
2023/12/31 13:14:17;;;;;;;1.88;1.10;;;;;;;;;;5031967;28;20488;-78
2023/12/31 13:16:43;;;;;;;1.77;1.00;;;;;;;;;;5028488;28;20037;-77
2023/12/31 13:19:08;;;;;;;3.40;1.05;;;;;;;;;;5030399;28;20037;-77
2023/12/31 13:21:34;;;;;;;1.38;0.90;;;;;;;;;;5029182;28;20044;-76
2023/12/31 13:23:59;;;;;;;3.33;1.20;;;;;;;;;;5030084;28;20040;-77
2023/12/31 13:26:24;;;;;;;1.42;0.90;;;;;;;;;;5029254;28;20168;-77
2023/12/31 13:28:51;;;;;;;2.42;1.02;;;;;;;;;;5029327;28;20025;-78
2023/12/31 13:31:17;;;;;;;;;;;;;;;;;;5029165;28;20516;-78
2023/12/31 13:33:46;;;;;;;1.73;1.13;;;;;;;;;;5029125;28;19912;-77
2023/12/31 13:36:11;;;;;;;2.50;1.40;;;;;;;;;;5028706;28;20120;-77
2023/12/31 13:38:37;;;;;;;3.42;1.25;;;;;;;;;;5009925;28;20500;-77
2023/12/31 13:41:02;;;;;;;;;;;;;;;;;;5026941;28;20034;-78
2023/12/31 13:43:28;;;;;;;2.15;1.13;;;;;;;;;;5030914;28;19963;-78
2023/12/31 13:45:53;;;;;;;;;;;;;;;;;;5030052;28;20057;-78
2023/12/31 13:48:18;;;;;;;2.75;1.10;;;;;;;;;;5030144;28;19924;-78
2023/12/31 13:50:44;;;;;;;2.22;1.50;;;;;;;;;;5015009;28;20104;-77
2023/12/31 13:53:09;;;;;;;;;;;;;;;;;;5030676;28;20043;-78
2023/12/31 13:55:35;;;;;;;2.65;1.20;;;;;;;;;;5028937;28;19915;-78
2023/12/31 13:58:00;;;;;;;;;;;;;;;;;;5037712;28;20034;-78
2023/12/31 14:00:26;;;;;;;1.30;0.93;;;;;;;;;;5026234;28;19909;-78
2023/12/31 14:02:51;;;;;;;2.17;1.10;;;;;;;;;;5028822;28;20056;-77
2023/12/31 14:05:17;;;;;;;;;;;;;;;;;;5029006;28;20462;-78
2023/12/31 14:07:42;;;;;;;1.27;0.90;;;;;;;;;;5032645;28;19916;-77
2023/12/31 14:10:08;;;;;;;1.98;1.25;;;;;;;;;;5029613;28;20126;-76
2023/12/31 14:12:33;;;;;;;;;;;;;;;;;;5028839;28;20056;-78
2023/12/31 14:14:59;;;;;;;1.73;1.08;;;;;;;;;;5012728;28;20046;-77
2023/12/31 14:17:24;;;;;;;1.25;0.90;;;;;;;;;;5028964;28;20464;-78
2023/12/31 14:19:51;;;;;;;1.08;0.90;;;;;;;;;;5029409;28;20038;-78
2023/12/31 14:22:17;;;;;;;1.80;1.15;;;;;;;;;;5030004;28;20042;-78
2023/12/31 14:24:43;;;;;;;1.77;1.20;;;;;;;;;;5027745;28;20028;-78
2023/12/31 14:27:08;;;;;;;;;;;;;;;;;;5030159;28;20447;-76
2023/12/31 14:29:34;;;;;;;1.90;1.15;;;;;;;;;;5029097;28;20249;-76
2023/12/31 14:31:59;;;;;;;1.85;1.05;;;;;;;;;;5011978;28;20040;-78
2023/12/31 14:34:25;;;;;;;1.67;1.15;;;;;;;;;;5029057;28;20040;-77
2023/12/31 14:36:50;;;;;;;;;;;;;;;;;;5029620;28;20033;-79
2023/12/31 14:39:18;;;;;;;2.03;1.30;;;;;;;;;;5028963;28;19932;-77
2023/12/31 14:41:43;;;;;;;2.33;1.30;;;;;;;;;;5000914;28;20030;-76
2023/12/31 14:44:10;;;;;;;2.88;1.60;;;;;;;;;;5028858;28;20032;-77
2023/12/31 14:46:35;;;;;;;2.60;1.40;;;;;;;;;;5028584;28;20045;-76
2023/12/31 14:49:02;;;;;;;;;;;;;;;;;;5031068;28;20472;-77
2023/12/31 14:51:28;;;;;;;2.90;1.60;;;;;;;;;;5032814;28;20015;-77
2023/12/31 14:53:54;;;;;;;2.53;1.60;;;;;;;;;;5014927;28;20520;-77
2023/12/31 14:56:19;;;;;;;;;;;;;;;;;;5033361;28;20044;-76
2023/12/31 14:58:44;;;;;;;3.40;1.30;;;;;;;;;;5032598;28;19909;-75